Аэропорт: Кызылорда. Кызылорда

ICAO: UAOO

METAR:
2020-06-01 01:00:00
UAOO 010100Z 09002MPS CAVOK 21/04 Q1009 R05/CLRD70 NOSIG RMK QFE745/0994
METAR:
2020-05-31 23:00:00
TAF UAOO 312300Z 0100/0109 04004MPS CAVOK